createdAt,value
2023-05-03T00:02:45.094Z,9.80
2023-05-03T00:08:40.973Z,11.90
2023-05-03T00:11:38.702Z,12.60
2023-05-03T00:14:36.221Z,10.50
2023-05-03T00:17:33.842Z,10.20
2023-05-03T00:20:31.230Z,10.10
2023-05-03T00:23:29.655Z,10.40
2023-05-03T00:26:27.906Z,10.60
2023-05-03T00:29:25.998Z,10.20
2023-05-03T00:32:23.851Z,10.10
2023-05-03T00:35:21.336Z,9.20
2023-05-03T00:38:19.077Z,9.10
2023-05-03T00:41:16.476Z,10.20
2023-05-03T00:44:14.213Z,10.00
2023-05-03T00:47:11.957Z,10.90
2023-05-03T00:50:11.838Z,9.50
2023-05-03T00:53:09.563Z,11.00
2023-05-03T00:56:07.032Z,10.20
2023-05-03T00:59:04.681Z,10.50
2023-05-03T01:02:02.554Z,10.20
2023-05-03T01:05:00.227Z,11.50
2023-05-03T01:07:57.968Z,11.10
2023-05-03T01:10:55.393Z,10.20
2023-05-03T01:13:53.115Z,10.00
2023-05-03T01:16:50.557Z,16.10
2023-05-03T01:19:48.224Z,10.30
2023-05-03T01:22:45.713Z,10.90
2023-05-03T01:25:43.455Z,10.10
2023-05-03T01:28:41.061Z,10.70
2023-05-03T01:31:38.520Z,11.70
2023-05-03T01:34:36.236Z,10.80
2023-05-03T01:37:33.609Z,13.10
2023-05-03T01:40:31.357Z,11.60
2023-05-03T01:43:28.784Z,11.00
2023-05-03T01:46:26.596Z,13.20
2023-05-03T01:49:24.121Z,10.50
2023-05-03T01:52:21.673Z,12.80
2023-05-03T01:55:19.407Z,13.10
2023-05-03T01:58:16.821Z,11.20
2023-05-03T02:01:14.532Z,11.30
2023-05-03T02:04:12.105Z,12.30
2023-05-03T02:07:09.832Z,11.30
2023-05-03T02:10:07.275Z,11.60
2023-05-03T02:13:05.070Z,11.10
2023-05-03T02:16:02.735Z,11.20
2023-05-03T02:19:00.829Z,11.70
2023-05-03T02:21:58.768Z,11.30
2023-05-03T02:24:56.231Z,12.50
2023-05-03T02:27:53.850Z,12.70
2023-05-03T02:30:51.883Z,12.10
2023-05-03T02:33:49.571Z,12.80
2023-05-03T02:36:46.965Z,10.50
2023-05-03T02:39:44.668Z,11.60
2023-05-03T02:42:42.329Z,11.90
2023-05-03T02:45:39.688Z,11.80
2023-05-03T02:48:37.257Z,11.10
2023-05-03T02:51:34.638Z,12.10
2023-05-03T02:54:32.772Z,12.70
2023-05-03T02:57:30.320Z,11.80
2023-05-03T03:00:27.952Z,11.70
2023-05-03T03:03:25.847Z,11.60
2023-05-03T03:06:23.441Z,12.60
2023-05-03T03:09:21.303Z,11.40
2023-05-03T03:12:18.638Z,11.00
2023-05-03T03:15:16.232Z,12.20
2023-05-03T03:18:13.641Z,13.80
2023-05-03T03:21:11.246Z,12.00
2023-05-03T03:24:08.654Z,11.90
2023-05-03T03:27:06.276Z,12.30
2023-05-03T03:30:04.238Z,11.10
2023-05-03T03:33:02.361Z,10.40
2023-05-03T03:36:00.013Z,10.20
2023-05-03T03:38:57.448Z,11.70
2023-05-03T03:41:55.052Z,11.00
2023-05-03T03:44:52.475Z,11.50
2023-05-03T03:47:51.431Z,13.60
2023-05-03T03:50:49.619Z,10.30
2023-05-03T03:53:47.190Z,13.00
2023-05-03T03:56:44.581Z,11.20
2023-05-03T03:59:42.432Z,11.50
2023-05-03T04:02:40.129Z,11.80
2023-05-03T04:05:37.922Z,11.40
2023-05-03T04:08:35.484Z,12.10
2023-05-03T04:11:32.857Z,10.90
2023-05-03T04:14:30.562Z,12.60
2023-05-03T04:17:29.294Z,11.90
2023-05-03T04:20:27.406Z,12.10
2023-05-03T04:23:24.936Z,12.30
2023-05-03T04:26:31.083Z,14.30
2023-05-03T04:29:30.178Z,12.00
2023-05-03T04:32:27.622Z,13.20
2023-05-03T04:35:25.366Z,12.50
2023-05-03T04:38:23.364Z,12.60
2023-05-03T04:41:21.018Z,11.40
2023-05-03T04:44:19.181Z,11.30
2023-05-03T04:47:18.196Z,12.20
2023-05-03T04:50:15.869Z,12.90
2023-05-03T04:53:13.282Z,12.60
2023-05-03T04:56:10.960Z,11.80
2023-05-03T04:59:09.080Z,11.50
2023-05-03T05:02:07.390Z,12.10
2023-05-03T05:05:05.589Z,11.50
2023-05-03T05:08:03.032Z,14.80
2023-05-03T05:11:00.680Z,12.20
2023-05-03T05:13:58.162Z,12.00
2023-05-03T05:16:55.889Z,14.10
2023-05-03T05:19:54.161Z,12.50
2023-05-03T05:22:51.879Z,15.80
2023-05-03T05:25:49.574Z,12.60
2023-05-03T05:28:46.947Z,11.60
2023-05-03T05:31:44.503Z,13.80
2023-05-03T05:34:45.243Z,12.60
2023-05-03T05:37:43.624Z,12.10
2023-05-03T05:40:41.130Z,11.80
2023-05-03T05:43:38.744Z,12.80
2023-05-03T05:46:36.548Z,13.10
2023-05-03T05:49:34.136Z,12.60
2023-05-03T05:52:31.831Z,12.80
2023-05-03T05:55:29.242Z,11.30
2023-05-03T05:58:27.129Z,11.50
2023-05-03T06:01:25.068Z,10.60
2023-05-03T06:04:22.756Z,11.20
2023-05-03T06:07:20.559Z,10.80
2023-05-03T06:10:17.944Z,10.20
2023-05-03T06:13:15.525Z,11.10
2023-05-03T06:16:12.963Z,10.70
2023-05-03T06:19:11.100Z,9.70
2023-05-03T06:22:08.590Z,10.20
2023-05-03T06:25:07.883Z,10.10
2023-05-03T06:28:05.628Z,9.70
2023-05-03T06:31:03.335Z,13.30
2023-05-03T06:34:01.171Z,10.10
2023-05-03T06:36:58.675Z,10.90
2023-05-03T06:39:56.363Z,10.40
2023-05-03T06:42:53.779Z,10.60
2023-05-03T06:45:51.420Z,10.40
2023-05-03T06:48:49.108Z,11.30
2023-05-03T06:51:46.545Z,10.70
2023-05-03T06:54:44.203Z,9.80
2023-05-03T06:57:41.581Z,14.00
2023-05-03T07:00:40.154Z,10.60
2023-05-03T07:03:40.097Z,11.30
2023-05-03T07:06:54.861Z,10.60
2023-05-03T07:09:53.931Z,10.50
2023-05-03T07:12:51.407Z,10.50
2023-05-03T07:15:49.206Z,13.30
2023-05-03T07:18:47.469Z,12.40
2023-05-03T07:21:45.225Z,11.50
2023-05-03T07:24:42.653Z,11.50
2023-05-03T07:27:40.401Z,10.80
2023-05-03T07:30:37.793Z,11.40
2023-05-03T07:33:35.584Z,11.30
2023-05-03T07:36:33.329Z,9.80
2023-05-03T07:39:31.223Z,11.40
2023-05-03T07:42:28.740Z,9.50
2023-05-03T07:45:26.170Z,9.90
2023-05-03T07:48:23.893Z,10.00
2023-05-03T07:51:21.309Z,9.70
2023-05-03T07:54:19.234Z,11.10
2023-05-03T07:57:17.819Z,10.50
2023-05-03T08:00:16.103Z,13.40
2023-05-03T08:03:13.973Z,10.90
2023-05-03T08:06:11.596Z,12.30
2023-05-03T08:09:09.301Z,11.60
2023-05-03T08:12:07.270Z,10.90
2023-05-03T08:15:07.389Z,10.20
2023-05-03T08:18:05.183Z,11.20
2023-05-03T08:21:02.927Z,9.30
2023-05-03T08:24:01.392Z,13.30
2023-05-03T08:26:59.098Z,10.20
2023-05-03T08:29:57.021Z,9.00
2023-05-03T08:32:54.781Z,10.20
2023-05-03T08:35:52.974Z,9.30
2023-05-03T08:38:50.604Z,7.40
2023-05-03T08:41:48.300Z,8.40
2023-05-03T08:44:45.968Z,8.30
2023-05-03T08:47:45.042Z,8.00
2023-05-03T08:50:43.267Z,7.90
2023-05-03T08:53:40.824Z,9.50
2023-05-03T08:56:38.583Z,7.40
2023-05-03T08:59:36.087Z,7.20
2023-05-03T09:02:37.162Z,7.10
2023-05-03T09:05:35.134Z,6.90
2023-05-03T09:08:33.146Z,6.80
2023-05-03T09:11:30.893Z,9.30
2023-05-03T09:14:28.304Z,6.40
2023-05-03T09:17:26.029Z,6.90
2023-05-03T09:20:23.468Z,7.00
2023-05-03T09:23:21.535Z,6.00
2023-05-03T09:26:19.131Z,9.10
2023-05-03T09:29:16.583Z,5.30
2023-05-03T09:32:14.444Z,9.50
2023-05-03T09:35:13.760Z,6.10
2023-05-03T09:38:11.503Z,5.80
2023-05-03T09:41:08.978Z,4.90
2023-05-03T09:44:06.925Z,11.10
2023-05-03T09:47:04.697Z,5.00
2023-05-03T09:50:02.135Z,4.70
2023-05-03T09:52:59.861Z,4.60
2023-05-03T09:55:57.315Z,4.70
2023-05-03T09:58:55.368Z,4.10
2023-05-03T10:01:52.910Z,5.40
2023-05-03T10:04:50.660Z,6.10
2023-05-03T10:07:48.093Z,5.20
2023-05-03T10:10:46.036Z,6.60
2023-05-03T10:13:43.746Z,5.40
2023-05-03T10:16:41.205Z,3.60
2023-05-03T10:19:38.927Z,5.30
2023-05-03T10:22:36.387Z,5.70
2023-05-03T10:25:34.052Z,3.70
2023-05-03T10:28:31.425Z,4.20
2023-05-03T10:31:29.411Z,6.00
2023-05-03T10:34:27.060Z,4.20
2023-05-03T10:37:24.572Z,6.90
2023-05-03T10:40:22.698Z,6.20
2023-05-03T10:43:20.078Z,4.20
2023-05-03T10:46:19.370Z,3.90
2023-05-03T10:49:16.815Z,5.60
2023-05-03T10:52:14.564Z,4.60
2023-05-03T10:55:14.390Z,4.10
2023-05-03T10:58:11.798Z,5.50
2023-05-03T11:01:09.535Z,4.30
2023-05-03T11:04:08.000Z,4.10
2023-05-03T11:07:05.953Z,7.10
2023-05-03T11:10:03.824Z,6.20
2023-05-03T11:13:01.374Z,4.40
2023-05-03T11:15:59.066Z,9.50
2023-05-03T11:18:56.531Z,5.20
2023-05-03T11:21:54.500Z,8.50
2023-05-03T11:24:51.909Z,4.20
2023-05-03T11:27:49.524Z,5.70
2023-05-03T11:30:46.923Z,3.90
2023-05-03T11:33:46.602Z,4.40
2023-05-03T11:36:45.783Z,6.40
2023-05-03T11:39:43.352Z,4.40
2023-05-03T11:42:40.821Z,7.50
2023-05-03T11:45:38.548Z,4.90
2023-05-03T11:48:36.891Z,5.00
2023-05-03T11:51:34.563Z,4.90
2023-05-03T11:54:32.343Z,7.40
2023-05-03T11:57:29.754Z,5.70
2023-05-03T12:00:27.802Z,8.90
2023-05-03T12:03:28.844Z,5.90
2023-05-03T12:06:29.204Z,15.70
2023-05-03T12:09:27.825Z,4.80
2023-05-03T12:12:30.226Z,4.80
2023-05-03T12:15:30.080Z,6.10
2023-05-03T12:18:27.789Z,4.90
2023-05-03T12:24:28.879Z,5.10
2023-05-03T12:27:28.254Z,5.40
2023-05-03T12:30:28.623Z,4.40
2023-05-03T12:33:28.559Z,15.70
2023-05-03T12:36:29.156Z,15.70
2023-05-03T12:39:31.536Z,16.80
2023-05-03T12:42:32.881Z,45.80
2023-05-03T12:45:34.546Z,7.60
2023-05-03T12:48:33.027Z,8.20
2023-05-03T12:51:33.354Z,4.20
2023-05-03T12:54:33.587Z,6.70
2023-05-03T12:57:35.639Z,5.00
2023-05-03T13:00:36.527Z,4.90
2023-05-03T13:03:42.930Z,4.00
2023-05-03T13:06:44.059Z,3.70
2023-05-03T13:13:00.881Z,4.50
2023-05-03T13:16:00.616Z,4.80
2023-05-03T13:18:58.559Z,4.90
2023-05-03T13:21:56.316Z,4.30
2023-05-03T13:24:53.743Z,4.80
2023-05-03T13:27:53.596Z,6.10
2023-05-03T13:30:51.113Z,5.80
2023-05-03T13:33:49.931Z,9.20
2023-05-03T13:36:47.708Z,7.70
2023-05-03T13:39:45.089Z,4.30
2023-05-03T13:42:42.995Z,5.20
2023-05-03T13:45:40.390Z,4.90
2023-05-03T13:48:39.213Z,7.70
2023-05-03T13:51:36.630Z,4.10
2023-05-03T13:54:34.507Z,4.40
2023-05-03T13:57:32.281Z,3.70
2023-05-03T14:00:32.085Z,5.90
2023-05-03T14:03:30.347Z,5.50
2023-05-03T14:06:29.308Z,7.30
2023-05-03T14:09:28.438Z,5.90
2023-05-03T14:12:26.648Z,6.50
2023-05-03T14:15:24.636Z,6.40
2023-05-03T14:18:22.890Z,4.30
2023-05-03T14:21:20.865Z,5.10
2023-05-03T14:24:18.559Z,4.30
2023-05-03T14:27:17.527Z,4.30
2023-05-03T14:30:14.928Z,4.30
2023-05-03T14:33:12.726Z,3.90
2023-05-03T14:36:10.170Z,7.40
2023-05-03T14:39:08.098Z,4.00
2023-05-03T14:42:05.541Z,4.80
2023-05-03T14:45:04.109Z,6.40
2023-05-03T14:48:02.479Z,4.10
2023-05-03T14:51:00.399Z,4.30
2023-05-03T14:53:57.834Z,3.80
2023-05-03T14:56:55.703Z,5.70
2023-05-03T14:59:53.580Z,6.00
2023-05-03T15:02:51.058Z,7.00
2023-05-03T15:05:48.954Z,5.30
2023-05-03T15:08:47.462Z,4.60
2023-05-03T15:11:46.255Z,7.40
2023-05-03T15:14:44.223Z,5.90
2023-05-03T15:17:41.657Z,4.40
2023-05-03T15:20:39.478Z,3.40
2023-05-03T15:23:36.905Z,8.50
2023-05-03T15:26:35.535Z,5.10
2023-05-03T15:29:32.943Z,3.80
2023-05-03T15:32:30.865Z,4.70
2023-05-03T15:35:28.395Z,6.10
2023-05-03T15:38:26.247Z,5.00
2023-05-03T15:41:23.649Z,5.60
2023-05-03T15:44:21.520Z,7.10
2023-05-03T15:47:19.897Z,7.80
2023-05-03T15:50:17.333Z,7.70
2023-05-03T15:53:15.214Z,4.90
2023-05-03T15:56:12.667Z,7.60
2023-05-03T15:59:10.548Z,8.00
2023-05-03T16:02:08.827Z,4.20
2023-05-03T16:05:07.055Z,6.40
2023-05-03T16:08:04.692Z,5.40
2023-05-03T16:11:02.562Z,5.50
2023-05-03T16:14:00.006Z,6.80
2023-05-03T16:16:57.874Z,9.00
2023-05-03T16:19:55.283Z,7.50
2023-05-03T16:22:53.230Z,4.90
2023-05-03T16:25:50.673Z,8.80
2023-05-03T16:28:50.064Z,6.30
2023-05-03T16:31:47.754Z,6.50
2023-05-03T16:34:45.640Z,8.30
2023-05-03T16:37:43.117Z,6.50
2023-05-03T16:40:40.966Z,7.20
2023-05-03T16:43:38.837Z,11.50
2023-05-03T16:46:36.720Z,9.00
2023-05-03T16:49:34.210Z,6.70
2023-05-03T16:52:32.328Z,13.20
2023-05-03T16:55:30.323Z,15.30
2023-05-03T16:58:27.762Z,9.50
2023-05-03T17:01:25.782Z,6.80
2023-05-03T17:04:23.698Z,7.20
2023-05-03T17:07:22.781Z,8.10
2023-05-03T17:10:20.875Z,10.40
2023-05-03T17:13:18.352Z,9.30
2023-05-03T17:16:16.612Z,9.30
2023-05-03T17:19:14.038Z,6.30
2023-05-03T17:22:11.933Z,7.20
2023-05-03T17:25:09.796Z,10.70
2023-05-03T17:28:07.779Z,8.70
2023-05-03T17:31:06.945Z,8.90
2023-05-03T17:34:05.276Z,7.90
2023-05-03T17:37:02.923Z,6.50
2023-05-03T17:40:00.845Z,9.20
2023-05-03T17:42:58.705Z,7.40
2023-05-03T17:45:56.680Z,7.60
2023-05-03T17:48:55.328Z,7.90
2023-05-03T17:51:52.692Z,11.30
2023-05-03T17:54:51.891Z,6.90
2023-05-03T17:57:49.561Z,11.10
2023-05-03T18:00:49.267Z,5.50
2023-05-03T18:03:46.872Z,7.90
2023-05-03T18:06:45.575Z,6.80
2023-05-03T18:09:43.097Z,8.30
2023-05-03T18:12:41.801Z,7.90
2023-05-03T18:15:41.324Z,9.30
2023-05-03T18:18:39.482Z,9.10
2023-05-03T18:21:37.428Z,8.30
2023-05-03T18:24:35.690Z,7.50
2023-05-03T18:27:35.318Z,6.20
2023-05-03T18:30:34.411Z,7.90
2023-05-03T18:33:32.128Z,5.90
2023-05-03T18:36:31.141Z,6.50
2023-05-03T18:39:28.752Z,9.20
2023-05-03T18:42:27.217Z,6.50
2023-05-03T18:45:26.019Z,8.50
2023-05-03T18:48:26.584Z,9.70
2023-05-03T18:51:25.849Z,10.30
2023-05-03T18:54:29.503Z,6.70
2023-05-03T18:57:28.736Z,8.50
2023-05-03T19:00:28.266Z,9.10
2023-05-03T19:03:27.311Z,8.90
2023-05-03T19:06:25.727Z,9.60
2023-05-03T19:09:23.826Z,7.50
2023-05-03T19:12:23.187Z,8.90
2023-05-03T19:15:21.402Z,6.40
2023-05-03T19:18:20.110Z,8.00
2023-05-03T19:21:19.350Z,10.10
2023-05-03T19:24:17.671Z,8.30
2023-05-03T19:27:17.719Z,7.00
2023-05-03T19:30:17.045Z,9.00
2023-05-03T19:33:15.003Z,8.60
2023-05-03T19:36:13.769Z,7.00
2023-05-03T19:39:19.015Z,10.30
2023-05-03T19:42:18.510Z,9.90
2023-05-03T19:45:16.387Z,11.60
2023-05-03T19:48:16.641Z,9.20
2023-05-03T19:51:14.717Z,9.10
2023-05-03T19:54:13.876Z,12.70
2023-05-03T19:57:13.080Z,8.00
2023-05-03T20:00:12.492Z,7.70
2023-05-03T20:03:10.505Z,8.70
2023-05-03T20:06:08.148Z,7.90
2023-05-03T20:09:06.410Z,6.20
2023-05-03T20:12:03.867Z,8.00
2023-05-03T20:15:01.728Z,9.30
2023-05-03T20:18:01.148Z,10.20
2023-05-03T20:20:59.125Z,9.20
2023-05-03T20:23:57.400Z,9.20
2023-05-03T20:26:55.155Z,7.80
2023-05-03T20:29:53.722Z,9.90
2023-05-03T20:32:51.610Z,10.40
2023-05-03T20:35:49.768Z,7.40
2023-05-03T20:38:47.285Z,9.90
2023-05-03T20:41:45.104Z,12.70
2023-05-03T20:44:42.496Z,8.90
2023-05-03T20:47:40.265Z,7.90
2023-05-03T20:50:37.675Z,8.90
2023-05-03T20:53:35.674Z,10.40
2023-05-03T20:56:33.215Z,8.40
2023-05-03T20:59:31.020Z,10.30
2023-05-03T21:02:28.832Z,8.70
2023-05-03T21:05:27.467Z,10.20
2023-05-03T21:08:24.895Z,10.40
2023-05-03T21:11:23.289Z,8.80
2023-05-03T21:14:20.787Z,11.00
2023-05-03T21:17:19.035Z,9.00
2023-05-03T21:20:16.448Z,9.00
2023-05-03T21:23:14.379Z,11.60
2023-05-03T21:26:11.817Z,10.20
2023-05-03T21:29:10.809Z,12.60
2023-05-03T21:32:08.606Z,10.30
2023-05-03T21:35:06.014Z,11.20
2023-05-03T21:38:04.717Z,10.80
2023-05-03T21:41:02.163Z,11.20
2023-05-03T21:43:59.696Z,12.30
2023-05-03T21:46:57.189Z,13.60
2023-05-03T21:49:54.826Z,13.00
2023-05-03T21:52:52.250Z,10.70
2023-05-03T21:55:49.888Z,13.60
2023-05-03T21:58:47.973Z,13.50
2023-05-03T22:01:45.469Z,14.80
2023-05-03T22:04:43.813Z,13.00
2023-05-03T22:07:41.223Z,13.70
2023-05-03T22:10:38.809Z,15.00
2023-05-03T22:13:49.586Z,12.90
2023-05-03T22:16:52.616Z,11.80
2023-05-03T22:19:50.608Z,9.60
2023-05-03T22:22:48.195Z,13.80
2023-05-03T22:25:45.766Z,13.40
2023-05-03T22:28:43.469Z,15.80
2023-05-03T22:31:41.239Z,15.60
2023-05-03T22:34:38.696Z,17.40
2023-05-03T22:37:36.460Z,13.20
2023-05-03T22:40:33.851Z,16.20
2023-05-03T22:43:31.831Z,12.70
2023-05-03T22:46:29.399Z,19.50
2023-05-03T22:49:27.236Z,16.50
2023-05-03T22:52:24.611Z,15.10
2023-05-03T22:55:22.343Z,15.70
2023-05-03T22:58:19.695Z,16.00
2023-05-03T23:01:17.415Z,15.10
2023-05-03T23:04:14.907Z,11.70
2023-05-03T23:07:12.445Z,12.30
2023-05-03T23:10:09.869Z,16.20
2023-05-03T23:13:07.880Z,14.40
2023-05-03T23:16:05.631Z,13.50
2023-05-03T23:19:04.189Z,14.40
2023-05-03T23:22:01.822Z,13.70
2023-05-03T23:24:59.254Z,11.80
2023-05-03T23:27:56.891Z,14.00
2023-05-03T23:30:54.979Z,13.00
2023-05-03T23:33:52.937Z,9.30
2023-05-03T23:36:50.447Z,12.80
2023-05-03T23:39:48.232Z,11.40
2023-05-03T23:42:46.842Z,11.20
2023-05-03T23:45:44.503Z,11.70
2023-05-03T23:48:42.132Z,8.00
2023-05-03T23:51:39.564Z,9.80
2023-05-03T23:54:37.156Z,9.70
2023-05-03T23:57:34.536Z,9.20
